Pahrump, Nevada Weather observations

Data are for observation ending at time listed.
 Day   Time    Ave.   Ave.  Ave.  Vector   Max.   Stn.    Total    Solar   Ave.  
  of    of     Air    Rel.  Wind   Wind    Wind   Baro.  Precip.   Rad.    Soil  
Year   Day     Temp.  Hum.  Speed  Dir.    Gust   Pres.                    Temp. 
2015   (PST)    F      %     mph   deg.    mph     mb.     in.     W/m2     F   
------------------------------------------------------------------------------
 116   14:50   71.0    15    9.7   348     18.3   919.6    0.00       0    68.4
 116   15:00   71.7    15    8.8     4     18.6   919.5    0.00       0    68.0
 116   15:10   71.4    15    8.3     2     18.0   919.3    0.00       0    67.7
 116   15:20   72.1    15    7.8    17     17.6   919.2    0.00       0    67.4
 116   15:30   72.1    15    6.3    20     15.9   919.2    0.00       0    67.1
 116   15:40   71.9    14    7.1   339     17.2   919.2    0.00       0    66.8
 116   15:50   72.2    14    8.3    34     20.4   919.2    0.00       0    66.6
 116   16:00   72.0    14    9.9    22     20.4   919.1    0.00       0    66.4
 116   16:10   71.9    14    7.8    46     17.5   919.1    0.00       0    66.2
 116   16:20   72.0    14    7.1    44     23.9   919.1    0.00       0    66.0
 116   16:30   72.0    14    8.6    20     17.0   919.0    0.00       0    65.9
 116   16:40   71.6    14    6.1    22     15.6   918.9    0.00       4    65.7
 116   16:50   71.2    14    8.4    11     17.0   919.0    0.00      21    65.6
 116   17:00   71.1    14    6.6    10     13.6   918.9    0.00      27    65.5
 116   17:10   71.4    14    6.7     4     13.8   918.8    0.00      29    65.3
 116   17:20   71.4    14    7.3    33     16.9   918.8    0.00      30    65.1
 116   17:30   70.9    14    8.4    47     20.2   918.8    0.00      23    65.0
 116   17:40   70.2    14   12.9    55     19.1   918.8    0.00      21    64.9
 116   17:50   69.7    14   13.2    50     27.2   918.9    0.00      22    64.8
 116   18:00   69.3    15   10.0    44     18.5   919.1    0.00      22    64.7
 116   18:10   69.1    15   10.8    47     18.0   919.1    0.00      14    64.6
 116   18:20   68.5    15   11.7    53     19.9   919.1    0.00      10    64.5
 116   18:30   68.2    15   12.1    47     18.6   919.2    0.00       7    64.4
 116   18:40   67.7    15   11.7    58     19.1   919.4    0.00       3    64.3
 116   18:50   67.4    15    9.0    46     17.5   919.5    0.00       2    64.1
 116   19:00   66.9    16    7.1    49     13.8   919.6    0.00       0    64.0
 116   19:10   66.6    16    7.6    50     14.5   919.7    0.00       0    63.9
 116   19:20   66.3    16    6.0    43     17.0   919.9    0.00       0    63.8
 116   19:30   66.1    16    6.3    51     13.0   920.1    0.00       0    63.6
 116   19:40   66.0    16    5.5    38     13.8   920.2    0.00       0    63.5
 116   19:50   65.8    16    8.0    56     17.0   920.3    0.00       0    63.3
 116   20:00   65.4    16   10.8    54     17.2   920.5    0.00       0    63.2
 116   20:10   65.1    16    8.4    52     16.4   920.6    0.00       0    63.0
 116   20:20   65.3    16    6.5    44     15.3   920.7    0.00       0    62.9
 116   20:30   64.9    16    8.0    48     15.3   921.0    0.00       0    62.8
 116   20:40   64.8    16    6.8    44     15.1   921.2    0.00       0    62.6
 116   20:50   64.5    17    6.6    36     14.8   921.2    0.00       0    62.5
 116   21:00   64.4    17    5.1    36     13.5   921.2    0.00       0    62.3
 116   21:10   64.1    18    3.7    34      8.4   921.3    0.00       0    62.2
 116   21:20   64.0    17    5.9    10     11.6   921.3    0.00       0    62.1
 116   21:30   64.9    16    7.0    36     20.7   921.2    0.00       0    62.0
 116   21:40   64.4    17    7.6    29     16.7   921.1    0.00       0    61.9
 116   21:50   64.2    16   10.3    38     25.0   920.9    0.00       0    61.8
 116   22:00   64.0    17    6.9    29     18.6   921.0    0.00       0    61.7
 116   22:10   62.9    18    6.4    15     14.2   921.2    0.00       0    61.6
 116   22:20   62.5    18    4.6    25     11.0   921.5    0.00       0    61.5
 116   22:30   63.0    16    5.3    35     15.7   921.6    0.00       0    61.4
 116   22:40   62.6    18    7.1    11     16.4   921.8    0.00       0    61.3
 116   22:50   61.5    18    9.9   356     17.6   921.9    0.00       0    61.2
 116   23:00   61.0    19   11.1   348     20.0   921.9    0.00       0    61.1
 116   23:10   60.4    19   11.9   345     20.1   922.0    0.00       0    61.0
 116   23:20   60.0    19   12.4   344     18.9   922.0    0.00       0    60.9
 116   23:30   59.8    20   12.9   345     19.7   922.0    0.00       0    60.8
 116   23:40   59.6    20   12.8   354     20.8   922.1    0.00       0    60.7
 116   23:50   59.7    20   14.2   356     22.3   922.1    0.00       0    60.6
 117    0:00   59.6    20   14.6   351     24.0   922.2    0.00       0    60.5
 117    0:10   59.1    20   13.1   350     22.1   922.2    0.00       0    60.4
 117    0:20   58.8    21   11.7   350     19.0   922.2    0.00       0    60.3
 117    0:30   59.1    20   13.8   354     23.1   922.1    0.00       0    60.2
 117    0:40   58.7    21   10.6     7     19.4   922.1    0.00       0    60.2
 117    0:50   58.5    21   11.5     1     20.2   922.0    0.00       0    60.0
 117    1:00   58.6    21    5.7    19     15.9   922.0    0.00       0    60.0
 117    1:10   58.2    21    8.2    15     18.9   921.9    0.00       0    59.8
 117    1:20   58.1    22    5.3    21     13.5   921.8    0.00       0    59.7
 117    1:30   58.2    21    5.6    50     11.0   922.0    0.00       0    59.6
 117    1:40   58.6    21    4.4    42     10.7   922.0    0.00       0    59.5
 117    1:50   57.8    22    4.7    21      9.9   922.1    0.00       0    59.4
 117    2:00   57.7    21    6.3   360     13.2   922.1    0.00       0    59.3
 117    2:10   58.1    21    4.5    26     15.2   922.1    0.00       0    59.1
 117    2:20   56.8    24    6.0   336     12.4   922.3    0.00       0    59.0
 117    2:30   57.5    22    8.2   337     11.8   922.3    0.00       0    58.9
 117    2:40   57.5    22    8.5   336     15.7   922.4    0.00       0    58.8
 117    2:50   57.3    22    9.1   344     15.9   922.4    0.00       0    58.7
 117    3:00   56.6    23    5.8     1     14.1   922.5    0.00       0    58.6
 117    3:10   56.0    24    5.2   357     11.2   922.6    0.00       0    58.5
 117    3:20   55.9    24    8.3   328     13.1   922.4    0.00       0    58.4
 117    3:30   56.5    23   10.6   330     18.0   922.2    0.00       0    58.4
 117    3:40   56.0    24    6.5   352     12.3   922.3    0.00       0    58.2
 117    3:50   55.6    25    7.2   330     10.5   922.5    0.00       0    58.2
 117    4:00   55.3    24    7.7   350     12.7   922.5    0.00       0    58.1
 117    4:10   55.3    25    7.0   344     12.1   922.5    0.00       0    58.0
 117    4:20   54.8    26    7.1   329     12.4   922.6    0.00       0    57.9
 117    4:30   54.5    27    6.2   329     13.7   922.8    0.00       0    57.8
 117    4:40   54.5    26    5.2   351     10.9   922.8    0.00       0    57.7
 117    4:50   55.2    25    7.5   340     13.6   922.8    0.00       3    57.6
 117    5:00   55.2    24    9.3   346     17.1   922.9    0.00       3    57.5
 117    5:10   55.5    24    9.7   345     16.0   923.1    0.00       7    57.4
 117    5:20   55.6    24   10.2   345     20.5   923.1    0.00      11    57.3
 117    5:30   55.4    24    9.1   348     17.3   923.1    0.00      17    57.3
 117    5:40   55.9    24    8.1   353     16.7   923.2    0.00      55    57.2
 117    5:50   56.9    23   10.3   344     19.9   923.2    0.00      99    57.2
 117    6:00   57.4    23   11.1   348     21.3   923.4    0.00     143    57.2
 117    6:10   57.9    22   11.0   346     17.6   923.7    0.00     144    57.3
 117    6:20   58.2    22   10.4   346     17.8   923.9    0.00     197    57.5
 117    6:30   58.5    22   10.9   349     18.4   924.1    0.00     140    57.7
 117    6:40   58.9    22   11.7   353     20.8   924.3    0.00     287    58.0
 117    6:50   59.4    21   12.4   346     20.3   924.3    0.00     329    58.3
 117    7:00   60.1    21   11.5   354     19.5   924.3    0.00     372    58.6
 117    7:10   60.8    20   11.5   348     19.9   924.4    0.00      77    59.0
 117    7:20   61.6    19   11.2   346     18.7   924.6    0.00      24    59.5
 117    7:30   62.0    19   11.7   344     19.1   924.7    0.00       8    59.9
 117    7:40   62.7    19   10.7   344     18.8   924.8    0.00     197    60.4
 117    7:50   63.5    18   10.7   338     20.6   924.9    0.00       7    60.9
 117    8:00   63.8    18   11.2   352     18.4   925.0    0.00      13    61.3
 117    8:10   64.5    18   11.3   345     18.6   925.1    0.00       5    61.8
 117    8:20   65.1    18   10.0   344     23.4   925.1    0.00       9    62.4
 117    8:30   65.5    17   12.2   347     20.2   925.2    0.00     604    63.0
 117    8:40   65.9    17   10.8   346     18.0   925.3    0.00     751    63.6
 117    8:50   66.7    16   11.3   343     19.5   925.4    0.00      62    64.2
 117    9:00   67.4    16   10.0   330     15.3   925.5    0.00      13    64.8
 117    9:10   68.1    16   11.4   323     20.5   925.4    0.00       0    65.4
 117    9:20   68.6    16   11.1   338     19.4   925.4    0.00      32    65.9
 117    9:30   69.1    16   10.6   330     20.8   925.4    0.00     657    66.3
 117    9:40   69.4    16   10.8   320     19.6   925.5    0.00       1    66.6
 117    9:50   69.9    15    9.1   335     15.6   925.8    0.00     556    66.8
 117   10:00   70.6    14    8.8   337     19.7   925.8    0.00     463    66.9
 117   10:10   71.0    14    7.0   335     16.1   925.8    0.00      18    66.9
 117   10:20   71.6    15   10.2   317     21.9   925.8    0.00      15    66.9
 117   10:30   71.4    14   10.8   325     20.4   925.9    0.00      22    66.9
 117   10:40   72.1    14    6.0   304     15.7   925.8    0.00      11    66.9
 117   10:50   71.9    13    5.7   193     13.0   925.7    0.00       3    67.1
 117   11:00   72.1    13    5.3   197     10.4   925.6    0.00       0    67.4
 117   11:10   72.1    13    4.4   194      8.9   925.7    0.00       2    67.8
 117   11:20   72.3    13    5.7   176     10.3   925.7    0.00       0    68.5
 117   11:30   72.7    13    4.6   182     10.4   925.6    0.00       0    69.2
 117   11:40   73.4    13    4.1   195     11.5   925.4    0.00       1    69.9
 117   11:50   74.7    13    4.7   222      9.6   925.5    0.00       2    70.7
 117   12:00   73.7    13    5.7   160     11.5   925.5    0.00       3    71.6
 117   12:10   74.1    13    4.9   196     11.0   925.5    0.00       3    72.3
 117   12:20   74.2    13    6.0   166     10.9   925.4    0.00       1    73.0
 117   12:30   74.3    13    5.6   179     10.4   925.3    0.00       1    73.7
 117   12:40   74.6    13    4.6   195     10.1   925.2    0.00       3    74.2
 117   12:50   74.9    12    5.5   162      8.6   925.1    0.00     219    74.8
 117   13:00   75.1    12    3.9   166      9.3   925.0    0.00     407    75.2
 117   13:10   75.9    12    4.5   164      8.0   925.0    0.00      26    75.7
 117   13:20   76.0    12    3.3   155      6.9   925.0    0.00      32    76.1
 117   13:30   76.9    12    2.6   161      6.3   925.0    0.00      10    76.5
 117   13:40   78.4    12    2.4   281      6.9   924.9    0.00       8    76.9
 117   13:50   78.9    12    3.4   294      7.2   924.8    0.00       4    77.2
 117   14:00   77.8    12    2.0   277      6.2   924.6    0.00      13    77.5
 117   14:10   78.3    11    1.6   299     10.2   924.4    0.00      13    77.7
 117   14:20   78.0    12    3.2   299      9.9   924.3    0.00      12    77.8
 117   14:30   77.6    12    2.7   296      8.3   924.0    0.00      30    77.8
 117   14:40   78.7    12    2.3   244      6.4   923.8    0.00     781    77.5

Return to Pahrump, Nevada graphs page.


Western Regional Climate Center,wrcc@dri.edu